Time;durP1;ratioP1;P1;durP2;ratioP2;P2;SDS_P1;SDS_P2;PMS_P1;PMS_P2;Temp;Humidity;BMP_temperature;BMP_pressure;BME280_temperature;BME280_humidity;BME280_pressure;Samples;Min_cycle;Max_cycle;Signal;HPM_P1;HPM_P2
2021/11/11 00:01:47;;;;;;;14.98;7.70;;;;;;;13.06;74.78;101816.97;4993466;28;20045;-79
2021/11/11 00:04:34;;;;;;;;;;;;;;;13.07;74.81;101813.13;4999035;28;20527;-79
2021/11/11 00:07:18;;;;;;;21.13;9.63;;;;;;;13.02;72.89;101805.84;4987945;28;19914;-79
2021/11/11 00:10:04;;;;;;;;;;;;;;;13.01;72.24;101795.22;4994248;28;20065;-78
2021/11/11 00:12:49;;;;;;;14.77;6.75;;;;;;;12.99;73.06;101790.09;4982295;28;19922;-79
2021/11/11 00:15:34;;;;;;;22.30;9.35;;;;;;;12.97;72.96;101803.22;4998810;28;20082;-78
2021/11/11 00:18:19;;;;;;;13.25;7.15;;;;;;;13.00;74.11;101810.00;4993624;28;20045;-79
2021/11/11 00:21:06;;;;;;;12.65;7.07;;;;;;;13.02;75.77;101808.59;4978342;28;20057;-79
2021/11/11 00:23:51;;;;;;;10.18;6.70;;;;;;;13.06;76.69;101814.25;4981202;28;20046;-78
2021/11/11 00:26:36;;;;;;;;;;;;;;;13.07;77.39;101813.94;4993060;28;20119;-80
2021/11/11 00:29:22;;;;;;;11.00;5.90;;;;;;;13.06;77.46;101815.03;4995907;28;19922;-79
2021/11/11 00:32:07;;;;;;;13.00;6.80;;;;;;;13.08;77.91;101814.75;4982056;28;20280;-79
2021/11/11 00:34:53;;;;;;;12.00;7.22;;;;;;;13.09;77.53;101813.66;4969481;28;20476;-78
2021/11/11 00:37:38;;;;;;;11.23;6.85;;;;;;;13.08;77.36;101810.09;4986493;28;20054;-78
2021/11/11 00:40:26;;;;;;;11.10;6.70;;;;;;;13.09;77.66;101814.47;4996184;28;20033;-79
2021/11/11 00:43:11;;;;;;;15.18;7.32;;;;;;;13.10;77.76;101809.81;4992113;28;20127;-79
2021/11/11 00:45:56;;;;;;;10.38;6.40;;;;;;;13.09;77.77;101816.38;4991552;28;20044;-79
2021/11/11 00:48:41;;;;;;;12.30;6.68;;;;;;;13.09;78.12;101824.56;5003933;28;20050;-79
2021/11/11 00:51:26;;;;;;;12.45;7.35;;;;;;;13.09;78.22;101830.84;4979648;28;20041;-79
2021/11/11 00:54:11;;;;;;;11.52;5.13;;;;;;;13.08;77.95;101822.94;4985312;28;20053;-78
2021/11/11 00:56:56;;;;;;;;;;;;;;;13.12;77.79;101829.44;5004886;28;20060;-80
2021/11/11 00:59:42;;;;;;;12.95;6.97;;;;;;;13.11;77.99;101820.44;5001829;28;19914;-79
2021/11/11 01:02:27;;;;;;;9.77;5.90;;;;;;;13.10;77.60;101813.34;4985290;28;20045;-78
2021/11/11 01:05:12;;;;;;;11.18;6.45;;;;;;;13.11;77.74;101811.41;4985092;28;20103;-79
2021/11/11 01:07:57;;;;;;;;;;;;;;;13.12;77.72;101813.06;4979166;28;20054;-79
2021/11/11 01:10:42;;;;;;;13.68;6.10;;;;;;;13.10;77.70;101807.06;4993015;28;20376;-79
2021/11/11 01:13:27;;;;;;;;;;;;;;;13.10;77.65;101791.50;4985014;28;20038;-78
2021/11/11 01:16:12;;;;;;;8.93;5.53;;;;;;;13.09;77.82;101800.00;4997685;28;19902;-79
2021/11/11 01:18:57;;;;;;;10.80;6.15;;;;;;;13.10;77.98;101818.00;4977420;28;20263;-79
2021/11/11 01:21:43;;;;;;;11.40;5.95;;;;;;;13.08;78.08;101814.75;4990240;28;20062;-79
2021/11/11 01:24:28;;;;;;;;;;;;;;;13.08;77.82;101809.28;5008037;28;20029;-80
2021/11/11 01:27:13;;;;;;;11.63;5.95;;;;;;;13.07;77.68;101799.47;4983610;28;20396;-80
2021/11/11 01:29:58;;;;;;;10.88;5.80;;;;;;;13.09;77.72;101802.72;4979548;28;20054;-79
2021/11/11 01:32:44;;;;;;;9.30;6.10;;;;;;;13.09;77.69;101800.00;4983273;28;20042;-79
2021/11/11 01:35:29;;;;;;;8.98;5.53;;;;;;;13.09;77.74;101794.53;4982023;28;20562;-79
2021/11/11 01:38:14;;;;;;;8.10;4.88;;;;;;;13.09;77.77;101798.06;4988014;28;20045;-79
2021/11/11 01:41:00;;;;;;;10.88;5.75;;;;;;;13.10;77.70;101794.22;4988678;28;20053;-79
2021/11/11 01:43:50;;;;;;;13.10;6.75;;;;;;;13.09;77.65;101795.34;4982516;28;20058;-79
2021/11/11 01:46:36;;;;;;;12.43;6.00;;;;;;;13.08;76.33;101798.38;4985634;28;20053;-78
2021/11/11 01:49:21;;;;;;;;;;;;;;;13.09;76.44;101805.44;4996642;28;20041;-80
2021/11/11 01:52:07;;;;;;;7.93;5.18;;;;;;;13.09;76.79;101795.34;4999639;28;19926;-78
2021/11/11 01:54:52;;;;;;;8.00;4.43;;;;;;;13.07;77.19;101797.56;4991400;28;20049;-78
2021/11/11 01:57:39;;;;;;;7.93;5.32;;;;;;;13.07;77.29;101802.22;4986362;28;20111;-79
2021/11/11 02:00:35;;;;;;;9.00;4.50;;;;;;;13.08;77.37;101801.09;4982745;28;20044;-78
2021/11/11 02:03:21;;;;;;;9.70;5.65;;;;;;;13.04;77.29;101797.38;4988202;28;20046;-79
2021/11/11 02:06:17;;;;;;;9.48;5.32;;;;;;;13.05;77.64;101802.53;4985321;28;20061;-79
2021/11/11 02:09:31;;;;;;;9.18;5.35;;;;;;;13.06;77.42;101789.66;4951702;28;20053;-80
2021/11/11 02:12:29;;;;;;;10.75;6.55;;;;;;;13.09;77.76;101791.78;4988455;28;20040;-79
2021/11/11 02:15:19;;;;;;;12.00;5.82;;;;;;;13.03;75.79;101773.91;4997972;28;20054;-78
2021/11/11 02:18:08;;;;;;;11.82;5.57;;;;;;;13.05;76.79;101771.69;4986031;28;20045;-79
2021/11/11 02:20:55;;;;;;;8.65;5.40;;;;;;;13.05;76.58;101752.56;4991223;28;20041;-79
2021/11/11 02:23:49;;;;;;;6.07;3.60;;;;;;;13.02;76.36;101750.44;4983593;28;20049;-79
2021/11/11 02:26:44;;;;;;;7.50;5.00;;;;;;;13.03;76.81;101758.31;4992918;28;20045;-79
2021/11/11 02:29:39;;;;;;;15.88;4.75;;;;;;;13.01;74.30;101751.53;4985069;28;20061;-80
2021/11/11 02:32:29;;;;;;;9.82;5.18;;;;;;;13.03;75.21;101741.13;4996947;28;20061;-80
2021/11/11 02:35:17;;;;;;;9.43;5.40;;;;;;;13.05;76.31;101739.72;4981946;28;20049;-79
2021/11/11 02:38:08;;;;;;;10.68;4.82;;;;;;;13.05;76.10;101737.00;4986897;28;20042;-79
2021/11/11 02:40:57;;;;;;;7.40;4.25;;;;;;;13.07;76.68;101739.41;4992597;28;20552;-80
2021/11/11 02:43:42;;;;;;;13.07;4.93;;;;;;;13.07;76.74;101733.94;4983873;28;20041;-79
2021/11/11 02:46:33;;;;;;;8.68;4.70;;;;;;;13.03;76.55;101733.75;4996491;28;20073;-79
2021/11/11 02:49:18;;;;;;;;;;;;;;;13.04;76.10;101726.38;4992507;28;20041;-79
2021/11/11 02:52:04;;;;;;;5.95;3.78;;;;;;;13.06;76.77;101729.59;4994334;28;19914;-79
2021/11/11 02:54:51;;;;;;;6.75;4.63;;;;;;;13.05;77.33;101738.91;4989340;28;20037;-79
2021/11/11 02:57:39;;;;;;;8.93;4.70;;;;;;;13.06;77.04;101737.78;4992290;28;20114;-79
2021/11/11 03:00:56;;;;;;;8.60;5.07;;;;;;;13.07;77.34;101726.56;4998781;28;20052;-79
2021/11/11 03:03:44;;;;;;;8.88;4.50;;;;;;;13.06;77.56;101722.19;4994204;28;20508;-79
2021/11/11 03:06:30;;;;;;;7.15;4.18;;;;;;;13.07;77.51;101718.38;4998403;28;20408;-78
2021/11/11 03:09:17;;;;;;;5.45;3.50;;;;;;;13.09;77.88;101718.88;4998561;28;20037;-79
2021/11/11 03:12:02;;;;;;;6.63;4.32;;;;;;;13.11;77.74;101721.28;4996948;28;20049;-78
2021/11/11 03:14:50;;;;;;;6.00;3.92;;;;;;;13.13;77.67;101716.34;4980276;28;20045;-79
2021/11/11 03:17:36;;;;;;;6.70;4.38;;;;;;;13.13;77.43;101714.44;4994606;28;20600;-78
2021/11/11 03:20:21;;;;;;;7.47;4.22;;;;;;;13.13;77.50;101714.44;4993640;28;20053;-78
2021/11/11 03:23:06;;;;;;;7.60;4.00;;;;;;;13.12;77.35;101710.09;5001811;28;20119;-79
2021/11/11 03:25:52;;;;;;;7.53;4.13;;;;;;;13.13;77.59;101699.97;4989177;28;20069;-79
2021/11/11 03:28:40;;;;;;;5.65;3.75;;;;;;;13.12;77.15;101693.69;4987483;28;20053;-79
2021/11/11 03:31:27;;;;;;;6.63;4.63;;;;;;;13.12;77.31;101706.53;4993379;28;20057;-79
2021/11/11 03:34:15;;;;;;;6.13;3.88;;;;;;;13.12;77.57;101712.00;4986699;28;20046;-79
2021/11/11 03:37:01;;;;;;;6.50;3.88;;;;;;;13.13;77.32;101702.72;5001535;28;20114;-79
2021/11/11 03:39:49;;;;;;;7.88;4.30;;;;;;;13.13;77.51;101697.25;4980268;28;20045;-79
2021/11/11 03:42:34;;;;;;;6.63;4.13;;;;;;;13.11;77.35;101699.44;4997072;28;20041;-79
2021/11/11 03:45:20;;;;;;;6.47;3.88;;;;;;;13.10;77.34;101695.91;4994506;28;20515;-80
2021/11/11 03:48:06;;;;;;;5.68;4.20;;;;;;;13.12;77.47;101706.53;4991464;28;20029;-79
2021/11/11 03:50:53;;;;;;;6.03;3.80;;;;;;;13.11;77.26;101716.66;4997762;28;20049;-79
2021/11/11 03:53:38;;;;;;;;;;;;;;;13.12;77.14;101714.75;5009626;28;20045;-79
2021/11/11 03:56:26;;;;;;;5.63;3.83;;;;;;;13.08;77.47;101709.06;4996123;28;19914;-79
2021/11/11 03:59:16;;;;;;;7.18;4.25;;;;;;;13.10;77.25;101714.22;4997301;28;20041;-79
2021/11/11 04:02:01;;;;;;;8.43;4.47;;;;;;;13.09;77.11;101709.88;4997276;28;20053;-78
2021/11/11 04:04:46;;;;;;;4.85;3.15;;;;;;;13.08;77.45;101700.06;4993658;28;20049;-79
2021/11/11 04:07:31;;;;;;;7.28;3.90;;;;;;;13.07;77.11;101699.25;4973532;28;20049;-79
2021/11/11 04:10:18;;;;;;;7.43;3.75;;;;;;;13.07;77.30;101690.25;4946727;28;1368603;-79
2021/11/11 04:13:06;;;;;;;7.30;3.65;;;;;;;13.08;77.08;101698.13;4999757;28;20019;-78
2021/11/11 04:15:52;;;;;;;5.03;3.40;;;;;;;13.08;76.90;101697.31;4972005;28;20061;-79
2021/11/11 04:18:38;;;;;;;6.20;3.42;;;;;;;13.09;76.98;101699.75;5000433;28;20053;-79
2021/11/11 04:21:23;;;;;;;5.10;3.45;;;;;;;13.09;76.62;101713.41;4985110;28;20061;-79
2021/11/11 04:24:08;;;;;;;5.97;3.63;;;;;;;13.09;76.90;101712.59;4993358;28;20057;-79
2021/11/11 04:27:06;;;;;;;4.05;2.88;;;;;;;13.09;76.82;101723.53;4997846;28;20045;-79
2021/11/11 04:30:03;;;;;;;9.13;4.05;;;;;;;13.08;76.72;101721.91;4982285;28;20420;-79
2021/11/11 04:32:49;;;;;;;9.27;3.92;;;;;;;13.07;76.36;101720.28;4991423;28;20048;-79
2021/11/11 04:35:34;;;;;;;5.68;3.17;;;;;;;13.06;76.47;101719.47;4987930;28;20045;-79
2021/11/11 04:59:32;;;;;;;5.72;3.45;;;;;;;13.06;76.33;101708.56;5000029;28;20037;-79
2021/11/11 05:05:11;;;;;;;6.65;3.13;;;;;;;13.06;76.37;101658.59;4994749;28;20044;-79
2021/11/11 05:07:58;;;;;;;6.25;3.55;;;;;;;13.05;76.48;101644.16;5001485;28;20539;-79
2021/11/11 05:10:48;;;;;;;5.45;3.33;;;;;;;13.05;76.23;101629.69;4992807;28;20049;-79
2021/11/11 05:13:34;;;;;;;6.00;2.95;;;;;;;13.03;76.29;101629.19;4974489;28;20041;-79
2021/11/11 05:16:21;;;;;;;9.13;3.92;;;;;;;13.06;76.04;101626.63;4979654;28;20040;-79
2021/11/11 05:19:07;;;;;;;6.68;3.53;;;;;;;13.03;75.48;101624.53;4985816;28;20116;-79
2021/11/11 05:21:53;;;;;;;6.80;3.53;;;;;;;13.06;74.80;101628.56;4993258;28;20045;-79
2021/11/11 05:24:38;;;;;;;;;;;;;;;13.06;74.80;101634.00;4965331;28;20040;-79
2021/11/11 05:27:24;;;;;;;5.60;3.10;;;;;;;13.07;75.18;101632.91;4999371;28;19917;-78
2021/11/11 05:30:11;;;;;;;5.03;2.80;;;;;;;13.10;75.59;101640.50;4988221;28;20048;-78
2021/11/11 05:32:56;;;;;;;8.60;3.15;;;;;;;13.09;75.47;101658.81;4969885;28;20064;-79
2021/11/11 05:35:45;;;;;;;5.55;3.08;;;;;;;13.06;75.88;101651.22;4992962;28;20057;-79
2021/11/11 05:38:30;;;;;;;4.10;2.72;;;;;;;13.07;76.08;101646.56;4981590;28;20053;-79
2021/11/11 05:41:15;;;;;;;;;;;;;;;13.08;76.18;101645.44;4987196;28;20050;-79
2021/11/11 05:44:04;;;;;;;7.05;3.47;;;;;;;13.04;75.92;101639.00;4975100;28;19918;-79
2021/11/11 05:46:49;;;;;;;5.30;2.25;;;;;;;13.06;76.25;101636.75;4974245;28;20069;-78
2021/11/11 05:49:35;;;;;;;5.22;3.30;;;;;;;13.06;76.30;101640.28;4974870;28;20053;-81
2021/11/11 05:52:20;;;;;;;6.10;3.03;;;;;;;13.04;76.14;101625.34;4978384;28;20049;-81
2021/11/11 05:55:10;;;;;;;9.55;3.50;;;;;;;13.07;76.77;101627.44;4973777;28;20049;-82
2021/11/11 05:57:56;;;;;;;24.55;5.20;;;;;;;13.05;76.73;101613.31;4984901;28;20061;-82
2021/11/11 06:00:41;;;;;;;;;;;;;;;13.06;77.01;101621.16;4984598;28;20173;-82
2021/11/11 06:03:40;;;;;;;9.38;3.28;;;;;;;13.03;76.78;101632.72;4989637;28;19917;-83
2021/11/11 06:06:25;;;;;;;;;;;;;;;13.05;77.08;101637.88;4993800;28;20045;-83
2021/11/11 06:09:10;;;;;;;9.07;4.03;;;;;;;13.03;76.78;101648.28;4982258;28;19922;-83
2021/11/11 06:11:56;;;;;;;9.82;3.17;;;;;;;13.03;76.82;101642.84;4985669;23;20054;-62
2021/11/11 06:14:40;;;;;;;5.07;2.35;;;;;;;13.04;77.17;101639.00;4992115;28;20521;-63
2021/11/11 06:17:26;;;;;;;14.15;5.40;;;;;;;13.00;74.70;101651.66;4985095;28;20049;-62
2021/11/11 06:20:16;;;;;;;9.60;5.63;;;;;;;12.92;70.32;101644.19;4977507;28;20045;-62
2021/11/11 06:23:02;;;;;;;8.70;4.35;;;;;;;12.91;68.71;101645.28;4986250;28;20127;-62
2021/11/11 06:25:47;;;;;;;7.03;4.10;;;;;;;12.83;67.18;101650.38;4992973;28;20057;-62
2021/11/11 06:28:32;;;;;;;6.28;3.58;;;;;;;12.78;66.20;101655.16;4981109;28;20053;-62
2021/11/11 06:31:20;;;;;;;9.57;4.22;;;;;;;12.77;69.54;101665.25;4979676;28;20712;-62
2021/11/11 06:34:06;;;;;;;5.88;3.50;;;;;;;12.80;71.85;101659.16;4988429;28;20064;-62
2021/11/11 06:36:51;;;;;;;5.72;3.25;;;;;;;12.84;72.91;101657.47;4984395;28;20514;-62
2021/11/11 06:39:37;;;;;;;;;;;;;;;12.89;73.92;101670.19;4971716;28;20053;-62
2021/11/11 06:42:23;;;;;;;;;;;;;;;12.90;74.50;101677.22;4994095;28;20429;-63
2021/11/11 06:45:11;;;;;;;4.20;2.92;;;;;;;12.91;74.73;101683.50;4994133;28;19918;-63
2021/11/11 06:47:56;;;;;;;9.50;3.42;;;;;;;12.92;74.93;101690.59;4982155;28;20062;-62
2021/11/11 06:50:43;;;;;;;4.63;2.40;;;;;;;12.93;75.54;101686.75;4984243;28;20041;-62
2021/11/11 06:53:28;;;;;;;4.85;2.90;;;;;;;12.91;75.54;101684.31;4982217;28;20411;-62
2021/11/11 06:56:13;;;;;;;;;;;;;;;12.93;75.84;101686.75;4981926;28;20050;-61
2021/11/11 06:58:57;;;;;;;5.78;3.35;;;;;;;12.93;75.85;101686.75;4985194;28;19913;-62
2021/11/11 07:01:43;;;;;;;6.68;2.88;;;;;;;12.92;76.31;101690.59;4970626;28;20050;-62
2021/11/11 07:04:28;;;;;;;10.95;3.90;;;;;;;12.93;76.07;101692.22;4961063;28;20049;-62
2021/11/11 07:07:14;;;;;;;12.30;3.20;;;;;;;12.94;76.24;101688.38;4964364;28;20058;-63
2021/11/11 07:09:59;;;;;;;;;;;;;;;12.95;76.48;101687.25;4984202;28;20078;-63
2021/11/11 07:12:44;;;;;;;7.20;3.40;;;;;;;12.93;76.42;101698.47;4978356;28;19914;-63
2021/11/11 07:15:30;;;;;;;8.07;3.97;;;;;;;12.95;76.40;101692.72;4985454;28;20054;-63
2021/11/11 07:18:16;;;;;;;6.75;3.15;;;;;;;12.95;76.41;101690.81;4985476;28;20420;-63
2021/11/11 07:21:01;;;;;;;12.05;3.42;;;;;;;12.94;76.65;101688.38;4978890;28;20046;-63
2021/11/11 07:23:46;;;;;;;5.95;2.92;;;;;;;12.95;76.53;101687.25;4985086;28;20066;-64
2021/11/11 07:26:31;;;;;;;;;;;;;;;12.95;76.52;101682.63;4980981;28;20068;-63
2021/11/11 07:29:16;;;;;;;9.57;3.17;;;;;;;12.94;76.66;101685.63;4983082;28;19922;-64
2021/11/11 07:32:01;;;;;;;6.10;2.97;;;;;;;12.93;76.56;101687.56;4986728;28;20049;-64
2021/11/11 07:34:46;;;;;;;;;;;;;;;12.95;76.90;101695.44;4973971;28;20045;-63
2021/11/11 07:37:30;;;;;;;6.55;2.75;;;;;;;12.94;76.95;101694.66;4982986;28;20383;-64
2021/11/11 07:40:16;;;;;;;;;;;;;;;12.97;76.88;101698.66;4988971;28;20054;-64
2021/11/11 07:43:02;;;;;;;2.70;2.13;;;;;;;12.96;77.20;101705.22;4988752;28;19914;-64
2021/11/11 07:45:57;;;;;;;7.82;2.72;;;;;;;12.96;77.04;101702.50;4956024;28;20109;-64
2021/11/11 07:48:42;;;;;;;4.80;2.60;;;;;;;12.97;77.21;101698.66;4984122;28;20056;-64
2021/11/11 07:51:27;;;;;;;6.00;2.97;;;;;;;12.97;77.30;101704.13;4985573;28;20412;-64
2021/11/11 07:54:12;;;;;;;4.18;2.38;;;;;;;12.96;77.62;101702.50;4984398;28;20061;-64
2021/11/11 07:56:57;;;;;;;;;;;;;;;12.98;77.47;101700.28;4987531;28;20045;-64
2021/11/11 07:59:42;;;;;;;5.55;2.88;;;;;;;12.97;77.24;101682.28;4986240;28;19914;-64
2021/11/11 08:02:28;;;;;;;4.38;2.35;;;;;;;12.98;77.31;101684.72;4987207;28;20037;-63
2021/11/11 08:05:15;;;;;;;7.53;2.33;;;;;;;12.98;77.66;101687.44;4990668;28;20049;-63
2021/11/11 08:08:00;;;;;;;9.40;2.95;;;;;;;13.00;77.41;101692.63;4986484;28;20045;-63
2021/11/11 08:10:45;;;;;;;4.55;1.67;;;;;;;12.99;77.59;101680.06;4981110;28;20046;-63
2021/11/11 08:13:30;;;;;;;2.85;2.25;;;;;;;13.00;77.42;101678.97;4989928;28;20427;-64
2021/11/11 08:16:15;;;;;;;;;;;;;;;13.01;77.51;101681.34;4988562;28;20447;-63
2021/11/11 08:19:00;;;;;;;6.70;2.28;;;;;;;13.01;77.60;101675.09;4987306;28;19930;-64
2021/11/11 08:21:45;;;;;;;2.90;1.75;;;;;;;13.01;77.63;101673.16;4976937;28;20073;-63
2021/11/11 08:24:30;;;;;;;;;;;;;;;13.03;77.45;101665.50;4984414;28;20050;-65
2021/11/11 08:27:16;;;;;;;4.45;2.53;;;;;;;13.02;77.66;101658.41;4977555;28;19922;-62
2021/11/11 08:30:01;;;;;;;3.90;2.85;;;;;;;13.03;77.64;101670.13;4977412;28;20412;-63
2021/11/11 08:32:50;;;;;;;5.25;1.95;;;;;;;13.05;77.67;101671.47;4981233;28;20037;-63
2021/11/11 08:35:35;;;;;;;5.05;3.05;;;;;;;13.03;77.52;101676.41;4979107;28;20050;-63
2021/11/11 08:38:21;;;;;;;6.10;3.42;;;;;;;13.04;77.41;101674.50;4965283;28;20412;-63
2021/11/11 08:41:06;;;;;;;;;;;;;;;13.06;77.51;101670.31;4982520;28;20407;-63
2021/11/11 08:43:51;;;;;;;4.80;2.40;;;;;;;13.07;77.50;101668.41;4979821;28;20391;-64
2021/11/11 08:46:35;;;;;;;;;;;;;;;13.08;77.44;101662.63;4966809;28;20407;-64
2021/11/11 08:49:21;;;;;;;5.40;3.05;;;;;;;13.09;77.50;101661.53;4967472;28;19913;-64
2021/11/11 08:52:07;;;;;;;3.55;2.05;;;;;;;13.09;77.67;101668.91;4980779;28;20053;-64
2021/11/11 08:54:53;;;;;;;3.60;2.70;;;;;;;13.10;77.63;101665.06;4980275;28;20037;-64
2021/11/11 08:57:38;;;;;;;10.93;3.00;;;;;;;13.11;77.59;101666.66;4982554;28;20101;-63
2021/11/11 09:00:24;;;;;;;;;;;;;;;13.13;77.58;101664.47;4985190;28;20061;-63
2021/11/11 09:03:12;;;;;;;8.13;3.53;;;;;;;13.13;77.60;101678.94;5000500;28;20387;-63
2021/11/11 09:05:57;;;;;;;6.85;4.07;;;;;;;13.13;77.47;101669.94;4982572;28;20058;-63
2021/11/11 09:08:42;;;;;;;6.60;4.50;;;;;;;13.12;77.37;101663.66;4984554;28;20041;-63
2021/11/11 09:11:27;;;;;;;;;;;;;;;13.15;77.20;101654.06;4980025;28;20061;-63
2021/11/11 09:14:12;;;;;;;6.82;3.90;;;;;;;13.16;77.27;101652.91;4969754;28;19914;-63
2021/11/11 09:16:58;;;;;;;3.65;2.95;;;;;;;13.17;77.53;101660.81;4985849;28;20046;-63
2021/11/11 09:19:43;;;;;;;6.22;3.67;;;;;;;13.17;77.52;101649.88;4986973;28;20049;-64
2021/11/11 09:22:31;;;;;;;3.08;2.40;;;;;;;13.18;77.22;101654.25;4983212;28;20054;-64
2021/11/11 09:25:16;;;;;;;9.93;4.57;;;;;;;13.18;76.95;101656.16;4978236;28;20042;-64
2021/11/11 09:28:04;;;;;;;7.38;4.30;;;;;;;13.18;76.60;101643.31;4989475;28;20507;-64
2021/11/11 09:30:49;;;;;;;13.30;6.57;;;;;;;13.20;76.63;101641.09;4980872;28;20141;-64
2021/11/11 09:33:34;;;;;;;;;;;;;;;13.21;76.63;101628.22;4979283;28;20162;-63
2021/11/11 09:36:20;;;;;;;5.43;2.78;;;;;;;13.20;76.67;101630.16;4979423;28;19914;-64
2021/11/11 09:39:06;;;;;;;7.43;3.03;;;;;;;13.23;77.05;101631.47;4981113;28;20514;-64
2021/11/11 09:41:56;;;;;;;6.18;3.15;;;;;;;13.21;76.81;101620.84;4979507;28;20416;-64
2021/11/11 09:44:42;;;;;;;9.63;5.60;;;;;;;13.23;76.41;101623.25;4980035;28;20042;-63
2021/11/11 09:47:27;;;;;;;6.72;4.03;;;;;;;13.23;76.51;101610.41;4980580;28;20054;-63
2021/11/11 09:50:12;;;;;;;;;;;;;;;13.26;76.81;101614.44;4970744;28;20046;-64
2021/11/11 09:53:03;;;;;;;4.57;2.33;;;;;;;13.25;76.88;101594.53;4982764;28;19914;-64
2021/11/11 09:58:55;;;;;;;6.40;2.28;;;;;;;13.29;77.08;101589.25;4983154;28;20071;-65
2021/11/11 10:01:42;;;;;;;9.15;2.58;;;;;;;13.31;77.09;101591.69;4982747;28;20547;-65
2021/11/11 10:04:27;;;;;;;4.65;2.70;;;;;;;13.31;77.23;101595.19;4996807;28;20391;-63
2021/11/11 10:07:12;;;;;;;3.60;2.33;;;;;;;13.32;77.22;101602.28;4992429;28;20053;-64
2021/11/11 10:09:57;;;;;;;3.40;2.20;;;;;;;13.33;77.39;101605.81;4992648;28;20042;-64
2021/11/11 10:12:42;;;;;;;3.00;2.33;;;;;;;13.33;77.10;101603.88;4996363;28;20110;-64
2021/11/11 10:15:27;;;;;;;;;;;;;;;13.35;77.16;101595.38;4991112;28;20061;-64
2021/11/11 10:18:51;;;;;;;6.15;2.38;;;;;;;13.36;77.24;101592.31;4986229;28;19913;-64
2021/11/11 10:22:07;;;;;;;6.22;3.10;;;;;;;13.38;77.17;101579.16;4986667;28;20049;-64
2021/11/11 10:25:06;;;;;;;7.78;3.45;;;;;;;13.39;75.94;101580.78;4987299;28;20510;-63
2021/11/11 10:27:53;;;;;;;4.65;3.53;;;;;;;13.39;76.14;101578.06;4987100;28;20054;-64
2021/11/11 10:30:38;;;;;;;5.63;2.80;;;;;;;13.42;76.51;101566.50;4987753;28;20038;-63
2021/11/11 10:33:24;;;;;;;5.53;2.60;;;;;;;13.43;76.53;101564.56;4988782;28;20053;-64
2021/11/11 10:36:10;;;;;;;5.28;1.92;;;;;;;13.44;76.56;101561.53;4977414;28;20058;-64
2021/11/11 10:39:14;;;;;;;4.78;2.28;;;;;;;13.48;76.42;101551.59;4982650;28;20057;-64
2021/11/11 10:42:12;;;;;;;4.82;2.60;;;;;;;13.48;76.54;101554.31;4988330;28;20526;-64
2021/11/11 10:44:58;;;;;;;7.15;2.70;;;;;;;13.48;75.95;101559.78;4982211;28;20734;-64
2021/11/11 10:47:47;;;;;;;4.55;2.95;;;;;;;13.50;76.27;101563.03;4994145;28;20053;-64
2021/11/11 10:50:36;;;;;;;5.80;3.70;;;;;;;13.50;75.57;101565.75;4990273;28;20411;-65
2021/11/11 10:53:29;;;;;;;3.05;2.50;;;;;;;13.52;75.56;101552.56;4991124;28;20049;-64
2021/11/11 10:56:14;;;;;;;6.38;3.10;;;;;;;13.52;75.69;101552.56;4990590;28;20061;-64
2021/11/11 10:59:16;;;;;;;5.93;3.17;;;;;;;13.56;74.18;101548.06;4986751;28;20046;-64
2021/11/11 11:02:02;;;;;;;8.13;3.20;;;;;;;13.59;74.03;101539.25;4989507;28;20511;-64
2021/11/11 11:05:05;;;;;;;7.00;3.78;;;;;;;13.62;73.08;101541.34;4988553;28;20060;-64
2021/11/11 11:08:00;;;;;;;16.13;4.32;;;;;;;13.66;72.94;101552.47;4992025;28;20061;-64
2021/11/11 11:10:59;;;;;;;8.63;3.42;;;;;;;13.66;72.52;101544.28;4989112;28;20057;-64
2021/11/11 11:13:53;;;;;;;9.50;4.25;;;;;;;13.67;72.44;101543.94;4977995;28;20049;-65
2021/11/11 11:16:38;;;;;;;8.32;3.47;;;;;;;13.67;72.90;101538.47;4972256;28;20568;-64
2021/11/11 11:19:23;;;;;;;9.07;4.07;;;;;;;13.70;71.24;101539.78;4988000;28;20053;-64
2021/11/11 11:22:08;;;;;;;;;;;;;;;13.73;72.75;101535.59;4987431;28;20046;-65
2021/11/11 11:25:04;;;;;;;6.38;3.80;;;;;;;13.74;73.54;101542.69;4986344;28;19913;-64
2021/11/11 11:27:49;;;;;;;11.65;5.47;;;;;;;13.71;71.07;101539.44;4973463;28;20050;-65
2021/11/11 11:30:42;;;;;;;;;;;;;;;13.75;73.02;101539.66;4991236;28;20538;-64
2021/11/11 11:33:34;;;;;;;6.03;2.90;;;;;;;13.76;73.30;101543.19;4986455;28;20375;-64
2021/11/11 11:36:36;;;;;;;6.57;3.97;;;;;;;13.79;72.90;101539.81;4989222;28;20037;-64
2021/11/11 11:39:31;;;;;;;4.85;3.20;;;;;;;13.81;73.69;101524.72;4988785;28;20061;-64
2021/11/11 11:42:21;;;;;;;12.90;6.90;;;;;;;13.83;72.34;101529.84;4990529;28;20050;-64
2021/11/11 11:45:20;;;;;;;15.38;5.15;;;;;;;13.84;72.19;101526.81;4990167;28;20049;-64
2021/11/11 11:48:16;;;;;;;10.05;5.05;;;;;;;13.85;70.56;101530.34;4993349;28;20069;-64
2021/11/11 11:51:05;;;;;;;11.05;5.60;;;;;;;13.86;71.15;101524.56;4992654;28;20049;-64
2021/11/11 11:54:04;;;;;;;12.55;5.60;;;;;;;13.88;69.90;101521.50;4976089;28;20046;-64
2021/11/11 11:56:54;;;;;;;13.40;4.90;;;;;;;13.89;71.20;101528.59;4980162;28;20045;-64
2021/11/11 11:59:42;;;;;;;12.48;5.88;;;;;;;13.88;70.86;101527.78;4989251;28;20061;-64
2021/11/11 12:05:54;;;;;;;8.13;4.82;;;;;;;13.87;71.32;101515.22;4957028;28;20126;-64
2021/11/11 12:14:52;;;;;;;10.10;6.60;;;;;;;13.87;72.15;101526.16;4986258;28;20045;-65
2021/11/11 12:29:52;;;;;;;8.25;4.82;;;;;;;13.90;73.53;101508.34;4990149;28;20682;-64
2021/11/11 12:39:49;;;;;;;20.73;8.63;;;;;;;14.22;69.34;101502.41;4986494;28;20061;-64
2021/11/11 12:42:43;;;;;;;30.20;9.43;;;;;;;14.70;66.53;101488.63;4994046;28;20049;-64
2021/11/11 12:45:33;;;;;;;15.20;7.75;;;;;;;14.93;65.58;101484.53;4987913;28;20053;-63
2021/11/11 12:48:22;;;;;;;17.00;8.18;;;;;;;15.13;64.99;101477.59;4979923;28;20058;-65
2021/11/11 12:51:07;;;;;;;15.35;8.93;;;;;;;15.26;65.30;101473.81;4994044;28;20053;-65
2021/11/11 12:53:55;;;;;;;17.83;10.35;;;;;;;15.35;63.41;101474.59;4979290;28;20045;-65
2021/11/11 12:56:40;;;;;;;20.30;9.98;;;;;;;15.34;63.68;101466.69;4987916;28;20042;-64
2021/11/11 12:59:25;;;;;;;19.95;10.02;;;;;;;15.35;63.37;101460.88;4994362;28;20049;-63
2021/11/11 13:02:12;;;;;;;;;;;;;;;15.31;64.08;101456.41;4978559;28;20042;-64
2021/11/11 13:04:58;;;;;;;21.27;8.88;;;;;;;15.37;64.80;101455.91;4990916;28;20267;-64
2021/11/11 13:07:51;;;;;;;19.85;9.70;;;;;;;15.57;63.21;101456.31;4973934;28;20527;-64
2021/11/11 13:11:03;;;;;;;22.42;11.00;;;;;;;15.71;62.11;101443.97;4983447;28;20092;-64
2021/11/11 13:14:09;;;;;;;16.65;8.77;;;;;;;15.87;62.17;101446.13;4982735;28;20034;-64
2021/11/11 13:16:54;;;;;;;21.00;11.48;;;;;;;15.88;60.71;101451.28;4984164;28;20053;-64
2021/11/11 13:19:46;;;;;;;18.48;10.00;;;;;;;16.02;61.76;101451.84;4979355;28;20046;-64
2021/11/11 13:22:49;;;;;;;20.42;9.07;;;;;;;16.05;62.49;101450.38;4990403;28;20042;-64
2021/11/11 15:17:26;;;;;;;33.20;14.25;;;;;;;15.13;65.57;101348.03;4985262;28;20042;-65
2021/11/11 16:26:44;;;;;;;19.88;10.93;;;;;;;14.74;71.21;101349.94;4988337;28;20045;-64
2021/11/11 16:29:30;;;;;;;11.68;7.78;;;;;;;14.77;71.44;101343.03;4976090;28;20262;-64
2021/11/11 16:32:15;;;;;;;20.50;12.40;;;;;;;14.79;71.39;101352.50;4987399;28;20046;-64
2021/11/11 16:35:00;;;;;;;15.32;8.48;;;;;;;14.80;71.74;101350.56;4977449;28;20046;-64
2021/11/11 16:37:46;;;;;;;15.35;9.93;;;;;;;14.82;71.85;101343.66;4989188;28;20049;-64
2021/11/11 16:40:32;;;;;;;25.50;10.57;;;;;;;14.83;72.06;101349.94;4984984;28;20053;-64
2021/11/11 16:43:17;;;;;;;18.13;9.20;;;;;;;14.84;72.22;101348.78;4980396;28;20035;-64
2021/11/11 16:46:04;;;;;;;18.10;8.75;;;;;;;14.83;72.55;101350.72;4989809;28;20508;-64
2021/11/11 16:48:49;;;;;;;18.27;9.60;;;;;;;14.84;72.57;101355.06;4984696;28;20057;-63
2021/11/11 16:51:34;;;;;;;;;;;;;;;14.84;72.80;101355.06;4986762;28;20046;-64
2021/11/11 16:54:19;;;;;;;20.45;10.00;;;;;;;14.84;73.00;101359.72;4991959;28;19918;-64
2021/11/11 16:57:05;;;;;;;;;;;;;;;14.85;73.29;101358.59;4986423;28;20038;-64
2021/11/11 16:59:50;;;;;;;15.15;9.23;;;;;;;14.83;73.54;101358.16;4984825;28;19914;-64
2021/11/11 17:02:35;;;;;;;;;;;;;;;14.85;73.61;101355.88;4987066;28;20049;-63